Terminal Aerodrome Forecast
Issued by NWS Duluth, MN

Home | Current Version | Previous Version | Text Only | Print | Product List | Glossary On
Versions: 1 2 3 4 5 6 7 8 9 10 11 12 13 14 15 16 17 18 19 20 21 22 23 24 25 26 27
000
FTUS43 KDLH 190500
TAFDLH
TAF
KDLH 190538Z 1906/2006 20004KT P6SM -SN OVC009
     FM191200 17004KT P6SM OVC012
     FM191800 16007KT P6SM -SN OVC023
     FM200000 18005KT P6SM -SN OVC017=

USA.gov is the U.S. government's official web portal to all federal, state and local government web resources and services.